Check out our new PWSWeather beta!
PWSweather.com
Personal Weather Stations
Station Observations
EW7135
Hopkinton, MA 01748

Hopkinton, MA 01748

Lat: 42.2281651, Lon: -71.54263960000003

Elevation: 354

Station Type: Davis Pro 2

Latest ConditionsUpdated 7:30:01 AM EST Thursday, Feb 27, 2020
Currently Today's Max Today's Min Today's Average
Temperature 45.6°F7.6°C 45.6°F7.6°C 40.9°F4.9°C 41.6°F5.3°C
Dew Point 44.8°F7.1°C 44.8°F7.1°C 39.8°F4.3°C 40.6°F4.8°C
Winds 5.0 mph SE8.0 kmh SE 8.0 mph -12.9 kmh - - 5.9 mph 9.5 kmh
Wind Gusts 11.0 mph17.7 kmh 18.0 mph29.0 kmh - -
Humidity 97% 97% 96% 96%
Pressure 29.31 in992.6 mb 29.83 in1010.2 mb 29.30 in992.2 mb -
Precipitation - 0.50 in12.7 mm - -
Hour Temp Dew Point Humidity Winds Wind Gusts Pressure Precip Precip Rate Daily Precip Total
07:30 AM 45.6°F7.6°C 44.8°F7.1°C 97% 5.0 mph SE8.0 kmh SE 11.0 mph17.7 kmh 29.31 in992.6 mb 0.04 in1.0 mm 0.00 in0.0 mm 0.50 in12.7 mm
07:15 AM 44.5°F6.9°C 43.7°F6.5°C 97% 6.0 mph E9.7 kmh E 13.0 mph20.9 kmh 29.30 in992.2 mb 0.07 in1.8 mm 0.00 in0.0 mm 0.50 in12.7 mm
07:00 AM 43.7°F6.5°C 42.9°F6.1°C 97% 5.0 mph E8.0 kmh E 15.0 mph24.1 kmh 29.31 in992.6 mb 0.10 in2.5 mm 0.01 in0.3 mm 0.50 in12.7 mm
06:45 AM 43.1°F6.2°C 42.3°F5.7°C 97% 5.0 mph E8.0 kmh E 12.0 mph19.3 kmh 29.34 in993.6 mb 0.09 in2.3 mm 0.00 in0.0 mm 0.48 in12.2 mm
06:30 AM 42.4°F5.8°C 41.3°F5.2°C 96% 6.0 mph E9.7 kmh E 11.0 mph17.7 kmh 29.36 in994.2 mb 0.09 in2.3 mm 0.04 in1.0 mm 0.46 in11.7 mm
06:15 AM 42.0°F5.6°C 40.9°F4.9°C 96% 5.0 mph ENE8.0 kmh ENE 15.0 mph24.1 kmh 29.37 in994.6 mb 0.08 in2.0 mm 0.00 in0.0 mm 0.43 in10.9 mm
06:00 AM 41.8°F5.4°C 40.7°F4.8°C 96% 6.0 mph ENE9.7 kmh ENE 13.0 mph20.9 kmh 29.39 in995.3 mb 0.08 in2.0 mm 0.00 in0.0 mm 0.40 in10.2 mm
05:45 AM 41.5°F5.3°C 40.4°F4.7°C 96% 6.0 mph ENE9.7 kmh ENE 14.0 mph22.5 kmh 29.41 in995.9 mb 0.09 in2.3 mm 0.00 in0.0 mm 0.39 in9.9 mm
05:30 AM 41.4°F5.2°C 40.3°F4.6°C 96% 7.0 mph NE11.3 kmh NE 17.0 mph27.4 kmh 29.44 in997.0 mb 0.10 in2.5 mm 0.00 in0.0 mm 0.37 in9.4 mm
05:15 AM 41.3°F5.2°C 40.2°F4.6°C 96% 6.0 mph ENE9.7 kmh ENE 16.0 mph25.7 kmh 29.46 in997.6 mb 0.12 in3.0 mm 0.04 in1.0 mm 0.35 in8.9 mm
05:00 AM 41.2°F5.1°C 40.1°F4.5°C 96% 8.0 mph ENE12.9 kmh ENE 17.0 mph27.4 kmh 29.49 in998.6 mb 0.11 in2.8 mm 0.00 in0.0 mm 0.32 in8.1 mm
04:45 AM 41.0°F5.0°C 39.9°F4.4°C 96% 7.0 mph ENE11.3 kmh ENE 17.0 mph27.4 kmh 29.50 in999.0 mb 0.11 in2.8 mm 0.00 in0.0 mm 0.30 in7.6 mm
04:30 AM 41.0°F5.0°C 39.9°F4.4°C 96% 6.0 mph ENE9.7 kmh ENE 16.0 mph25.7 kmh 29.52 in999.7 mb 0.13 in3.3 mm 0.00 in0.0 mm 0.27 in6.9 mm
04:15 AM 40.9°F4.9°C 39.8°F4.3°C 96% 7.0 mph NE11.3 kmh NE 17.0 mph27.4 kmh 29.54 in1000.3 mb 0.14 in3.6 mm 0.00 in0.0 mm 0.23 in5.8 mm
04:00 AM 40.9°F4.9°C 39.8°F4.3°C 96% 8.0 mph NE12.9 kmh NE 16.0 mph25.7 kmh 29.54 in1000.3 mb 0.16 in4.1 mm 0.00 in0.0 mm 0.21 in5.3 mm
03:45 AM 40.9°F4.9°C 39.8°F4.3°C 96% 7.0 mph NE11.3 kmh NE 17.0 mph27.4 kmh 29.57 in1001.4 mb 0.17 in4.3 mm 0.12 in3.0 mm 0.19 in4.8 mm
03:30 AM 41.1°F5.1°C 40.0°F4.4°C 96% 7.0 mph NE11.3 kmh NE 16.0 mph25.7 kmh 29.60 in1002.4 mb 0.14 in3.6 mm 0.20 in5.1 mm 0.14 in3.6 mm
03:15 AM 41.2°F5.1°C 40.1°F4.5°C 96% 6.0 mph ENE9.7 kmh ENE 18.0 mph29.0 kmh 29.62 in1003.0 mb 0.09 in2.3 mm 0.16 in4.1 mm 0.09 in2.3 mm
03:00 AM 41.4°F5.2°C 40.3°F4.6°C 96% 4.0 mph ENE6.4 kmh ENE 11.0 mph17.7 kmh 29.66 in1004.4 mb 0.05 in1.3 mm 0.04 in1.0 mm 0.05 in1.3 mm
02:45 AM 41.3°F5.2°C 40.2°F4.6°C 96% 6.0 mph ENE9.7 kmh ENE 17.0 mph27.4 kmh 29.66 in1004.4 mb 0.02 in0.5 mm 0.08 in2.0 mm 0.02 in0.5 mm
02:30 AM 41.1°F5.1°C 40.0°F4.4°C 96% 7.0 mph ENE11.3 kmh ENE 15.0 mph24.1 kmh 29.64 in1003.7 mb 0.00 in0.0 mm 0.00 in0.0 mm 0.00 in0.0 mm
02:15 AM 41.0°F5.0°C 39.9°F4.4°C 96% 8.0 mph NE12.9 kmh NE 17.0 mph27.4 kmh 29.66 in1004.4 mb 0.00 in0.0 mm 0.00 in0.0 mm 0.00 in0.0 mm
02:00 AM 41.0°F5.0°C 39.9°F4.4°C 96% 7.0 mph NE11.3 kmh NE 16.0 mph25.7 kmh 29.69 in1005.4 mb 0.00 in0.0 mm 0.00 in0.0 mm 0.00 in0.0 mm
01:45 AM 41.1°F5.1°C 40.0°F4.4°C 96% 6.0 mph ENE9.7 kmh ENE 15.0 mph24.1 kmh 29.74 in1007.1 mb 0.00 in0.0 mm 0.00 in0.0 mm 0.00 in0.0 mm
01:30 AM 41.0°F5.0°C 39.9°F4.4°C 96% 6.0 mph ENE9.7 kmh ENE 14.0 mph22.5 kmh 29.75 in1007.5 mb 0.00 in0.0 mm 0.00 in0.0 mm 0.00 in0.0 mm
01:15 AM 41.0°F5.0°C 39.9°F4.4°C 96% 6.0 mph NE9.7 kmh NE 12.0 mph19.3 kmh 29.74 in1007.1 mb 0.00 in0.0 mm 0.00 in0.0 mm 0.00 in0.0 mm
01:00 AM 41.1°F5.1°C 40.0°F4.4°C 96% 4.0 mph NE6.4 kmh NE 14.0 mph22.5 kmh 29.80 in1009.1 mb 0.00 in0.0 mm 0.00 in0.0 mm 0.00 in0.0 mm
12:45 AM 41.1°F5.1°C 40.0°F4.4°C 96% 4.0 mph ENE6.4 kmh ENE 10.0 mph16.1 kmh 29.80 in1009.1 mb 0.00 in0.0 mm 0.00 in0.0 mm 0.00 in0.0 mm
12:30 AM 41.1°F5.1°C 40.0°F4.4°C 96% 5.0 mph NE8.0 kmh NE 12.0 mph19.3 kmh 29.81 in1009.5 mb 0.00 in0.0 mm 0.00 in0.0 mm 0.00 in0.0 mm
12:15 AM 41.1°F5.1°C 40.0°F4.4°C 96% 5.0 mph NE8.0 kmh NE 14.0 mph22.5 kmh 29.82 in1009.8 mb 0.00 in0.0 mm 0.00 in0.0 mm 0.00 in0.0 mm
12:00 AM 41.2°F5.1°C 40.1°F4.5°C 96% 3.0 mph ENE4.8 kmh ENE 9.0 mph14.5 kmh 29.83 in1010.2 mb 0.00 in0.0 mm 0.00 in0.0 mm 0.00 in0.0 mm